createdAt,value
2023-03-18T00:00:31.805Z,11.60
2023-03-18T00:02:58.588Z,11.60
2023-03-18T00:05:25.318Z,11.60
2023-03-18T00:07:51.803Z,11.60
2023-03-18T00:10:18.319Z,11.60
2023-03-18T00:12:44.796Z,11.60
2023-03-18T00:15:11.305Z,11.60
2023-03-18T00:17:37.828Z,11.60
2023-03-18T00:20:04.417Z,11.60
2023-03-18T00:22:31.789Z,11.60
2023-03-18T00:24:58.296Z,11.60
2023-03-18T00:27:24.787Z,11.60
2023-03-18T00:29:51.238Z,11.60
2023-03-18T00:32:17.709Z,11.70
2023-03-18T00:34:44.216Z,11.60
2023-03-18T00:37:10.700Z,11.60
2023-03-18T00:39:37.195Z,11.70
2023-03-18T00:42:03.668Z,11.70
2023-03-18T00:44:30.174Z,11.70
2023-03-18T00:46:56.717Z,11.60
2023-03-18T00:49:25.848Z,11.60
2023-03-18T00:51:52.342Z,11.60
2023-03-18T00:54:18.838Z,11.60
2023-03-18T00:56:45.317Z,11.60
2023-03-18T00:59:11.865Z,11.70
2023-03-18T01:01:38.443Z,11.70
2023-03-18T01:04:04.981Z,11.70
2023-03-18T01:06:31.466Z,11.60
2023-03-18T01:08:57.975Z,11.70
2023-03-18T01:11:24.465Z,11.70
2023-03-18T01:13:50.975Z,11.60
2023-03-18T01:16:17.489Z,11.60
2023-03-18T01:18:44.027Z,11.60
2023-03-18T01:21:10.551Z,11.60
2023-03-18T01:23:37.069Z,11.60
2023-03-18T01:26:03.613Z,11.60
2023-03-18T01:28:30.102Z,11.60
2023-03-18T01:30:56.592Z,11.60
2023-03-18T01:33:23.076Z,11.60
2023-03-18T01:35:49.628Z,11.60
2023-03-18T01:38:16.105Z,11.60
2023-03-18T01:40:42.581Z,11.60
2023-03-18T01:43:09.054Z,11.60
2023-03-18T01:45:35.564Z,11.60
2023-03-18T01:48:02.078Z,11.60
2023-03-18T01:50:28.617Z,11.60
2023-03-18T01:52:55.107Z,11.60
2023-03-18T01:55:21.585Z,11.60
2023-03-18T01:57:48.087Z,11.60
2023-03-18T02:00:14.578Z,11.70
2023-03-18T02:02:41.096Z,11.60
2023-03-18T02:05:07.599Z,11.60
2023-03-18T02:07:34.100Z,11.70
2023-03-18T02:10:00.618Z,11.70
2023-03-18T02:12:27.084Z,11.60
2023-03-18T02:14:53.581Z,11.60
2023-03-18T02:17:20.067Z,11.60
2023-03-18T02:19:46.553Z,11.70
2023-03-18T02:22:13.041Z,11.60
2023-03-18T02:24:39.515Z,11.60
2023-03-18T02:27:05.996Z,11.70
2023-03-18T02:29:37.919Z,11.60
2023-03-18T02:32:04.395Z,11.60
2023-03-18T02:34:30.896Z,11.70
2023-03-18T02:36:57.395Z,11.70
2023-03-18T02:39:23.983Z,11.70
2023-03-18T02:41:50.472Z,11.60
2023-03-18T02:44:16.983Z,11.70
2023-03-18T02:46:43.487Z,11.60
2023-03-18T02:49:10.015Z,11.60
2023-03-18T02:51:36.495Z,11.60
2023-03-18T02:54:02.993Z,11.70
2023-03-18T02:56:29.499Z,11.70
2023-03-18T02:58:56.286Z,11.60
2023-03-18T03:01:22.832Z,11.60
2023-03-18T03:03:49.343Z,11.60
2023-03-18T03:06:15.820Z,11.60
2023-03-18T03:08:42.472Z,11.70
2023-03-18T03:11:08.981Z,11.70
2023-03-18T03:13:35.487Z,11.60
2023-03-18T03:16:01.983Z,11.60
2023-03-18T03:18:28.564Z,11.70
2023-03-18T03:20:55.024Z,11.60
2023-03-18T03:23:21.505Z,11.70
2023-03-18T03:25:47.998Z,11.70
2023-03-18T03:28:14.510Z,11.70
2023-03-18T03:30:40.983Z,11.70
2023-03-18T03:33:07.566Z,11.60
2023-03-18T03:35:34.107Z,11.70
2023-03-18T03:38:00.654Z,11.70
2023-03-18T03:40:27.122Z,11.70
2023-03-18T03:42:53.658Z,11.70
2023-03-18T03:45:20.170Z,11.70
2023-03-18T03:47:46.710Z,11.70
2023-03-18T03:50:13.192Z,11.60
2023-03-18T03:52:39.720Z,11.60
2023-03-18T03:55:06.210Z,11.60
2023-03-18T03:57:32.686Z,11.70
2023-03-18T03:59:59.184Z,11.70
2023-03-18T04:02:25.678Z,11.70
2023-03-18T04:04:52.200Z,11.60
2023-03-18T04:07:18.686Z,11.60
2023-03-18T04:09:45.185Z,11.60
2023-03-18T04:12:11.663Z,11.60
2023-03-18T04:14:38.158Z,11.60
2023-03-18T04:17:04.624Z,11.60
2023-03-18T04:19:31.099Z,11.60
2023-03-18T04:21:57.592Z,11.60
2023-03-18T04:24:24.086Z,11.70
2023-03-18T04:26:50.557Z,11.70
2023-03-18T04:29:17.033Z,11.70
2023-03-18T04:31:43.562Z,11.70
2023-03-18T04:34:10.100Z,11.70
2023-03-18T04:36:36.601Z,11.60
2023-03-18T04:39:03.144Z,11.60
2023-03-18T04:41:29.629Z,11.70
2023-03-18T04:43:56.101Z,11.60
2023-03-18T04:46:22.627Z,11.70
2023-03-18T04:48:49.117Z,11.70
2023-03-18T04:51:15.604Z,11.60
2023-03-18T04:53:42.092Z,11.60
2023-03-18T04:56:14.224Z,11.70
2023-03-18T04:58:40.684Z,11.70
2023-03-18T05:01:07.187Z,11.60
2023-03-18T05:03:33.746Z,11.70
2023-03-18T05:06:00.268Z,11.70
2023-03-18T05:08:26.746Z,11.60
2023-03-18T05:10:53.222Z,11.60
2023-03-18T05:13:19.696Z,11.70
2023-03-18T05:15:46.177Z,11.60
2023-03-18T05:18:12.653Z,11.60
2023-03-18T05:20:39.136Z,11.70
2023-03-18T05:23:05.649Z,11.60
2023-03-18T05:25:32.346Z,11.70
2023-03-18T05:27:58.984Z,11.70
2023-03-18T05:30:25.459Z,11.70
2023-03-18T05:32:51.986Z,11.70
2023-03-18T05:35:18.486Z,11.70
2023-03-18T05:37:44.960Z,11.70
2023-03-18T05:40:11.437Z,11.60
2023-03-18T05:42:49.486Z,11.60
2023-03-18T05:45:21.711Z,11.60
2023-03-18T05:47:48.189Z,11.60
2023-03-18T05:50:14.685Z,11.60
2023-03-18T05:52:41.183Z,11.60
2023-03-18T05:55:07.675Z,11.60
2023-03-18T05:57:34.155Z,11.60
2023-03-18T06:00:02.107Z,11.70
2023-03-18T06:02:28.599Z,11.70
2023-03-18T06:04:55.103Z,11.70
2023-03-18T06:07:21.609Z,11.60
2023-03-18T06:09:48.091Z,11.70
2023-03-18T06:12:14.584Z,11.70
2023-03-18T06:14:41.087Z,11.70
2023-03-18T06:17:07.582Z,11.60
2023-03-18T06:19:34.093Z,11.70
2023-03-18T06:22:00.593Z,11.70
2023-03-18T06:24:27.071Z,11.70
2023-03-18T06:26:53.549Z,11.70
2023-03-18T06:29:20.053Z,11.70
2023-03-18T06:31:46.552Z,11.70
2023-03-18T06:34:13.049Z,11.70
2023-03-18T06:36:39.536Z,11.70
2023-03-18T06:39:06.010Z,11.70
2023-03-18T06:41:32.516Z,11.70
2023-03-18T06:43:59.012Z,11.70
2023-03-18T06:46:25.525Z,11.70
2023-03-18T06:48:52.049Z,11.70
2023-03-18T06:51:18.523Z,11.70
2023-03-18T06:53:45.028Z,11.70
2023-03-18T06:56:11.506Z,11.70
2023-03-18T06:58:38.010Z,11.70
2023-03-18T07:01:04.544Z,11.70
2023-03-18T07:03:32.153Z,11.70
2023-03-18T07:05:58.641Z,11.70
2023-03-18T07:08:25.176Z,11.70
2023-03-18T07:10:51.650Z,11.70
2023-03-18T07:13:18.168Z,11.70
2023-03-18T07:15:44.662Z,11.70
2023-03-18T07:18:12.239Z,11.70
2023-03-18T07:20:38.779Z,11.70
2023-03-18T07:23:05.278Z,11.70
2023-03-18T07:25:31.927Z,11.70
2023-03-18T07:27:58.576Z,11.70
2023-03-18T07:30:25.060Z,11.70
2023-03-18T07:32:51.618Z,11.70
2023-03-18T07:35:18.129Z,11.70
2023-03-18T07:37:44.612Z,11.70
2023-03-18T07:40:11.101Z,11.70
2023-03-18T07:42:37.575Z,11.70
2023-03-18T07:45:04.077Z,11.70
2023-03-18T07:47:30.586Z,11.70
2023-03-18T07:49:57.094Z,11.70
2023-03-18T07:52:23.600Z,11.70
2023-03-18T07:54:50.087Z,11.70
2023-03-18T07:57:16.594Z,11.70
2023-03-18T07:59:43.083Z,11.70
2023-03-18T08:02:09.562Z,11.80
2023-03-18T08:04:36.046Z,11.70
2023-03-18T08:07:02.731Z,11.70
2023-03-18T08:09:29.225Z,11.70
2023-03-18T08:11:55.716Z,11.80
2023-03-18T08:14:22.199Z,11.80
2023-03-18T08:16:48.700Z,11.80
2023-03-18T08:19:15.190Z,11.80
2023-03-18T08:21:41.669Z,11.80
2023-03-18T08:24:08.147Z,11.90
2023-03-18T08:26:34.630Z,11.80
2023-03-18T08:29:02.219Z,11.80
2023-03-18T08:31:28.719Z,11.80
2023-03-18T08:33:55.220Z,11.80
2023-03-18T08:36:21.701Z,11.80
2023-03-18T08:38:48.184Z,11.80
2023-03-18T08:41:14.669Z,11.80
2023-03-18T08:43:41.160Z,11.80
2023-03-18T08:46:07.736Z,11.80
2023-03-18T08:48:34.261Z,11.80
2023-03-18T08:51:00.721Z,11.80
2023-03-18T08:53:27.217Z,11.80
2023-03-18T08:55:53.685Z,11.90
2023-03-18T08:58:20.196Z,11.80
2023-03-18T09:00:46.752Z,11.90
2023-03-18T09:03:13.350Z,11.80
2023-03-18T09:05:39.836Z,11.90
2023-03-18T09:08:06.344Z,11.90
2023-03-18T09:10:32.831Z,11.90
2023-03-18T09:12:59.330Z,11.80
2023-03-18T09:15:25.834Z,11.90
2023-03-18T09:18:10.016Z,11.90
2023-03-18T09:20:37.411Z,11.90
2023-03-18T09:23:03.907Z,11.90
2023-03-18T09:25:30.859Z,11.90
2023-03-18T09:27:57.502Z,11.90
2023-03-18T09:30:24.057Z,11.90
2023-03-18T09:32:50.648Z,11.90
2023-03-18T09:35:17.188Z,11.90
2023-03-18T09:37:43.677Z,11.90
2023-03-18T09:40:10.151Z,11.90
2023-03-18T09:42:36.626Z,11.90
2023-03-18T09:45:03.121Z,11.90
2023-03-18T09:47:29.588Z,11.90
2023-03-18T09:49:56.081Z,12.00
2023-03-18T09:52:22.582Z,11.90
2023-03-18T09:54:49.072Z,11.90
2023-03-18T09:57:15.651Z,12.00
2023-03-18T09:59:42.250Z,12.00
2023-03-18T10:02:08.753Z,12.00
2023-03-18T10:04:35.240Z,12.00
2023-03-18T10:07:01.714Z,12.00
2023-03-18T10:09:28.210Z,12.00
2023-03-18T10:11:54.721Z,12.00
2023-03-18T10:14:21.206Z,12.00
2023-03-18T10:16:47.685Z,12.00
2023-03-18T10:19:14.173Z,12.00
2023-03-18T10:21:40.653Z,12.00
2023-03-18T10:24:07.150Z,12.00
2023-03-18T10:26:33.627Z,12.00
2023-03-18T10:29:00.120Z,12.00
2023-03-18T10:31:26.631Z,12.00
2023-03-18T10:33:53.173Z,12.00
2023-03-18T10:36:19.708Z,12.00
2023-03-18T10:38:46.296Z,12.00
2023-03-18T10:41:12.780Z,12.10
2023-03-18T10:43:39.288Z,12.10
2023-03-18T10:46:05.843Z,12.10
2023-03-18T10:48:32.379Z,12.10
2023-03-18T10:50:59.044Z,12.10
2023-03-18T10:53:25.549Z,12.10
2023-03-18T10:55:52.032Z,12.10
2023-03-18T10:58:18.536Z,12.10
2023-03-18T11:00:45.024Z,12.10
2023-03-18T11:03:11.633Z,12.10
2023-03-18T11:05:38.221Z,12.10
2023-03-18T11:08:04.730Z,12.10
2023-03-18T11:10:31.384Z,12.10
2023-03-18T11:12:58.044Z,12.10
2023-03-18T11:15:24.555Z,12.10
2023-03-18T11:17:51.058Z,12.10
2023-03-18T11:20:17.529Z,12.10
2023-03-18T11:22:44.005Z,12.10
2023-03-18T11:25:10.484Z,12.20
2023-03-18T11:27:36.988Z,12.20
2023-03-18T11:30:03.486Z,12.20
2023-03-18T11:32:29.997Z,12.20
2023-03-18T11:35:02.384Z,12.20
2023-03-18T11:37:28.844Z,12.20
2023-03-18T11:39:59.084Z,12.20
2023-03-18T11:42:25.696Z,12.20
2023-03-18T11:44:52.171Z,12.20
2023-03-18T11:47:18.656Z,12.30
2023-03-18T11:49:50.388Z,12.30
2023-03-18T11:52:16.862Z,12.30
2023-03-18T11:54:43.350Z,12.30
2023-03-18T11:57:09.841Z,12.30
2023-03-18T11:59:36.316Z,12.30
2023-03-18T12:02:02.814Z,12.30
2023-03-18T12:04:29.388Z,12.30
2023-03-18T12:06:55.909Z,12.30
2023-03-18T12:09:22.410Z,12.30
2023-03-18T12:11:48.924Z,12.30
2023-03-18T12:14:20.420Z,12.30
2023-03-18T12:16:47.006Z,12.30
2023-03-18T12:19:13.525Z,12.30
2023-03-18T12:21:40.013Z,12.30
2023-03-18T12:24:06.446Z,12.30
2023-03-18T12:26:33.022Z,12.30
2023-03-18T12:29:01.575Z,12.40
2023-03-18T12:31:28.318Z,12.40
2023-03-18T12:33:54.853Z,12.30
2023-03-18T12:36:21.344Z,12.30
2023-03-18T12:38:50.838Z,12.40
2023-03-18T12:41:20.592Z,12.40
2023-03-18T12:43:47.160Z,12.40
2023-03-18T12:46:13.710Z,12.40
2023-03-18T12:48:44.460Z,12.30
2023-03-18T12:51:11.468Z,12.40
2023-03-18T12:53:38.029Z,12.40
2023-03-18T12:56:08.464Z,12.40
2023-03-18T12:58:34.961Z,12.40
2023-03-18T13:01:01.513Z,12.40
2023-03-18T13:03:32.494Z,12.40
2023-03-18T13:05:58.986Z,12.40
2023-03-18T13:08:25.488Z,12.40
2023-03-18T13:10:51.971Z,12.40
2023-03-18T13:13:18.469Z,12.40
2023-03-18T13:15:50.457Z,12.40
2023-03-18T13:18:16.922Z,12.40
2023-03-18T13:20:43.415Z,12.40
2023-03-18T13:23:09.915Z,12.40
2023-03-18T13:25:36.415Z,12.40
2023-03-18T13:28:02.933Z,12.40
2023-03-18T13:30:29.431Z,12.40
2023-03-18T13:32:55.954Z,12.40
2023-03-18T13:35:22.469Z,12.40
2023-03-18T13:37:48.951Z,12.40
2023-03-18T13:40:15.448Z,12.40
2023-03-18T13:42:42.105Z,12.40
2023-03-18T13:45:09.274Z,12.50
2023-03-18T13:47:35.762Z,12.50
2023-03-18T13:50:02.269Z,12.50
2023-03-18T13:52:28.752Z,12.50
2023-03-18T13:54:55.247Z,12.50
2023-03-18T13:57:21.727Z,12.40
2023-03-18T13:59:48.215Z,12.50
2023-03-18T14:02:14.704Z,12.50
2023-03-18T14:04:41.232Z,12.50
2023-03-18T14:07:07.731Z,12.50
2023-03-18T14:09:34.202Z,12.50
2023-03-18T14:12:00.711Z,12.50
2023-03-18T14:14:27.201Z,12.50
2023-03-18T14:16:53.713Z,12.50
2023-03-18T14:19:20.218Z,12.50
2023-03-18T14:21:46.711Z,12.50
2023-03-18T14:24:13.199Z,12.50
2023-03-18T14:26:39.670Z,12.60
2023-03-18T14:29:06.180Z,12.50
2023-03-18T14:31:32.809Z,12.50
2023-03-18T14:33:59.339Z,12.50
2023-03-18T14:36:25.805Z,12.50
2023-03-18T14:38:52.280Z,12.50
2023-03-18T14:41:18.879Z,12.50
2023-03-18T14:43:45.400Z,12.50
2023-03-18T14:46:11.922Z,12.50
2023-03-18T14:48:38.423Z,12.50
2023-03-18T14:51:04.909Z,12.50
2023-03-18T14:53:31.383Z,12.50
2023-03-18T14:55:57.871Z,12.50
2023-03-18T14:58:24.357Z,12.50
2023-03-18T15:00:50.843Z,12.50
2023-03-18T15:03:17.367Z,12.50
2023-03-18T15:05:43.893Z,12.50
2023-03-18T15:08:10.390Z,12.50
2023-03-18T15:10:36.867Z,12.50
2023-03-18T15:13:03.376Z,12.50
2023-03-18T15:15:29.945Z,12.50
2023-03-18T15:17:56.560Z,12.50
2023-03-18T15:20:23.038Z,12.50
2023-03-18T15:22:49.838Z,12.50
2023-03-18T15:25:16.317Z,12.50
2023-03-18T15:27:42.799Z,12.50
2023-03-18T15:30:09.278Z,12.50
2023-03-18T15:32:35.807Z,12.50
2023-03-18T15:35:02.354Z,12.50
2023-03-18T15:37:28.853Z,12.50
2023-03-18T15:39:55.343Z,12.50
2023-03-18T15:42:21.818Z,12.50
2023-03-18T15:44:48.318Z,12.50
2023-03-18T15:47:20.707Z,12.50
2023-03-18T15:49:47.197Z,12.50
2023-03-18T15:52:13.681Z,12.50
2023-03-18T15:54:40.168Z,12.50
2023-03-18T15:57:06.651Z,12.50
2023-03-18T15:59:38.597Z,12.60
2023-03-18T16:02:05.089Z,12.60
2023-03-18T16:04:31.586Z,12.60
2023-03-18T16:06:58.087Z,12.60
2023-03-18T16:09:24.581Z,12.60
2023-03-18T16:11:51.099Z,12.60
2023-03-18T16:14:17.606Z,12.60
2023-03-18T16:16:44.176Z,12.60
2023-03-18T16:19:10.652Z,12.60
2023-03-18T16:21:37.129Z,12.60
2023-03-18T16:24:03.622Z,12.60
2023-03-18T16:26:30.103Z,12.60
2023-03-18T16:28:56.592Z,12.60
2023-03-18T16:31:23.088Z,12.60
2023-03-18T16:33:49.588Z,12.60
2023-03-18T16:36:16.093Z,12.60
2023-03-18T16:38:42.592Z,12.60
2023-03-18T16:41:09.070Z,12.60
2023-03-18T16:43:35.549Z,12.60
2023-03-18T16:46:02.097Z,12.60
2023-03-18T16:48:28.634Z,12.60
2023-03-18T16:50:57.150Z,12.60
2023-03-18T16:53:24.371Z,12.60
2023-03-18T16:55:50.850Z,12.60
2023-03-18T16:58:17.382Z,12.60
2023-03-18T17:00:43.909Z,12.70
2023-03-18T17:03:10.415Z,12.60
2023-03-18T17:05:36.888Z,12.70
2023-03-18T17:08:03.395Z,12.70
2023-03-18T17:10:29.884Z,12.70
2023-03-18T17:12:56.377Z,12.70
2023-03-18T17:15:22.866Z,12.70
2023-03-18T17:17:49.392Z,12.70
2023-03-18T17:20:15.901Z,12.70
2023-03-18T17:22:42.420Z,12.70
2023-03-18T17:25:08.907Z,12.70
2023-03-18T17:27:35.395Z,12.70
2023-03-18T17:30:02.674Z,12.70
2023-03-18T17:32:29.273Z,12.70
2023-03-18T17:34:55.827Z,12.70
2023-03-18T17:37:22.316Z,12.70
2023-03-18T17:39:48.820Z,12.70
2023-03-18T17:42:15.324Z,12.80
2023-03-18T17:44:41.826Z,12.80
2023-03-18T17:47:08.314Z,12.70
2023-03-18T17:49:39.626Z,12.70
2023-03-18T17:52:06.159Z,12.80
2023-03-18T17:54:32.666Z,12.70
2023-03-18T17:56:59.163Z,12.80
2023-03-18T17:59:25.642Z,12.80
2023-03-18T18:01:52.134Z,12.80
2023-03-18T18:04:18.642Z,12.80
2023-03-18T18:06:46.359Z,12.80
2023-03-18T18:09:14.364Z,12.80
2023-03-18T18:11:40.862Z,12.80
2023-03-18T18:14:07.341Z,12.80
2023-03-18T18:16:33.831Z,12.80
2023-03-18T18:19:00.338Z,12.80
2023-03-18T18:21:26.817Z,12.80
2023-03-18T18:23:53.295Z,12.80
2023-03-18T18:26:19.851Z,12.80
2023-03-18T18:28:46.371Z,12.80
2023-03-18T18:31:14.713Z,12.80
2023-03-18T18:33:41.235Z,12.80
2023-03-18T18:36:07.731Z,12.80
2023-03-18T18:38:34.246Z,12.80
2023-03-18T18:41:00.731Z,12.80
2023-03-18T18:43:27.233Z,12.80
2023-03-18T18:45:53.733Z,12.80
2023-03-18T18:48:20.756Z,12.80
2023-03-18T18:50:47.255Z,12.80
2023-03-18T18:53:13.732Z,12.80
2023-03-18T18:55:40.211Z,12.80
2023-03-18T18:58:06.852Z,12.80
2023-03-18T19:00:33.348Z,12.80
2023-03-18T19:02:59.864Z,12.80
2023-03-18T19:05:26.380Z,12.80
2023-03-18T19:07:52.859Z,12.80
2023-03-18T19:10:19.337Z,12.80
2023-03-18T19:12:45.866Z,12.80
2023-03-18T19:15:14.924Z,12.80
2023-03-18T19:17:42.044Z,12.80
2023-03-18T19:20:08.535Z,12.80
2023-03-18T19:22:35.020Z,12.80
2023-03-18T19:25:02.861Z,12.80
2023-03-18T19:27:29.356Z,12.80
2023-03-18T19:29:55.884Z,12.80
2023-03-18T19:32:22.376Z,12.80
2023-03-18T19:34:48.874Z,12.80
2023-03-18T19:37:15.351Z,12.80
2023-03-18T19:39:41.860Z,12.80
2023-03-18T19:42:08.351Z,12.80
2023-03-18T19:44:34.827Z,12.80
2023-03-18T19:47:01.309Z,12.80
2023-03-18T19:49:27.798Z,12.70
2023-03-18T19:51:54.282Z,12.70
2023-03-18T19:54:26.774Z,12.80
2023-03-18T19:56:53.237Z,12.70
2023-03-18T19:59:19.727Z,12.70
2023-03-18T20:01:46.232Z,12.70
2023-03-18T20:04:12.774Z,12.70
2023-03-18T20:06:39.270Z,12.70
2023-03-18T20:09:05.766Z,12.70
2023-03-18T20:11:32.255Z,12.70
2023-03-18T20:13:58.748Z,12.70
2023-03-18T20:16:25.256Z,12.70
2023-03-18T20:18:51.776Z,12.70
2023-03-18T20:21:18.271Z,12.70
2023-03-18T20:23:44.762Z,12.70
2023-03-18T20:26:11.252Z,12.70
2023-03-18T20:28:37.737Z,12.70
2023-03-18T20:31:04.233Z,12.70
2023-03-18T20:33:30.711Z,12.70
2023-03-18T20:35:57.198Z,12.70
2023-03-18T20:38:23.692Z,12.60
2023-03-18T20:40:50.174Z,12.70
2023-03-18T20:43:16.690Z,12.70
2023-03-18T20:45:43.211Z,12.60
2023-03-18T20:48:09.765Z,12.60
2023-03-18T20:50:36.282Z,12.60
2023-03-18T20:53:02.768Z,12.60
2023-03-18T20:55:33.160Z,12.60
2023-03-18T20:57:59.781Z,12.60
2023-03-18T21:00:26.255Z,12.60
2023-03-18T21:02:52.729Z,12.70
2023-03-18T21:05:19.213Z,12.60
2023-03-18T21:07:45.719Z,12.60
2023-03-18T21:10:12.203Z,12.60
2023-03-18T21:12:38.750Z,12.60
2023-03-18T21:15:05.242Z,12.60
2023-03-18T21:17:31.734Z,12.60
2023-03-18T21:20:11.070Z,12.60
2023-03-18T21:22:41.961Z,12.60
2023-03-18T21:25:09.116Z,12.60
2023-03-18T21:27:35.699Z,12.60
2023-03-18T21:30:02.190Z,12.60
2023-03-18T21:32:28.997Z,12.60
2023-03-18T21:34:55.482Z,12.60
2023-03-18T21:37:21.960Z,12.60
2023-03-18T21:39:48.438Z,12.60
2023-03-18T21:42:14.916Z,12.60
2023-03-18T21:44:41.400Z,12.50
2023-03-18T21:47:07.875Z,12.60
2023-03-18T21:49:34.365Z,12.60
2023-03-18T21:54:44.787Z,12.60
2023-03-18T21:57:11.275Z,12.60
2023-03-18T21:59:37.771Z,12.60
2023-03-18T22:02:04.244Z,12.50
2023-03-18T22:04:32.903Z,12.60
2023-03-18T22:06:59.370Z,12.60
2023-03-18T22:09:25.840Z,12.60
2023-03-18T22:11:52.321Z,12.50
2023-03-18T22:14:18.804Z,12.50
2023-03-18T22:16:45.283Z,12.50
2023-03-18T22:19:11.754Z,12.50
2023-03-18T22:21:38.245Z,12.50
2023-03-18T22:24:08.915Z,12.50
2023-03-18T22:26:35.407Z,12.50
2023-03-18T22:29:01.892Z,12.60
2023-03-18T22:31:28.421Z,12.50
2023-03-18T22:33:54.942Z,12.50
2023-03-18T22:36:21.408Z,12.50
2023-03-18T22:38:50.943Z,12.50
2023-03-18T22:41:17.415Z,12.50
2023-03-18T22:43:43.916Z,12.50
2023-03-18T22:46:10.468Z,12.50
2023-03-18T22:48:36.969Z,12.60
2023-03-18T22:51:03.449Z,12.50
2023-03-18T22:53:29.956Z,12.50
2023-03-18T22:55:56.449Z,12.50
2023-03-18T22:58:22.921Z,12.50
2023-03-18T23:00:49.399Z,12.50
2023-03-18T23:03:15.914Z,12.50
2023-03-18T23:05:42.419Z,12.50
2023-03-18T23:08:08.912Z,12.50
2023-03-18T23:10:35.392Z,12.50
2023-03-18T23:13:01.879Z,12.50
2023-03-18T23:15:28.368Z,12.50
2023-03-18T23:17:56.969Z,12.50
2023-03-18T23:20:23.466Z,12.50
2023-03-18T23:22:49.974Z,12.50
2023-03-18T23:25:16.491Z,12.50
2023-03-18T23:27:42.979Z,12.50
2023-03-18T23:30:09.463Z,12.50
2023-03-18T23:32:35.986Z,12.50
2023-03-18T23:35:02.964Z,12.50
2023-03-18T23:37:29.435Z,12.50
2023-03-18T23:39:56.988Z,12.50
2023-03-18T23:42:23.479Z,12.50
2023-03-18T23:44:49.973Z,12.50
2023-03-18T23:47:16.449Z,12.50
2023-03-18T23:49:42.918Z,12.50
2023-03-18T23:52:09.413Z,12.50
2023-03-18T23:54:35.902Z,12.50
2023-03-18T23:57:02.390Z,12.50
2023-03-18T23:59:28.895Z,12.50
